createdAt,value
2022-09-05T00:00:06.336Z,100.00
2022-09-05T00:03:02.042Z,100.00
2022-09-05T00:06:01.735Z,100.00
2022-09-05T00:08:44.445Z,100.00
2022-09-05T00:11:40.416Z,100.00
2022-09-05T00:14:34.185Z,100.00
2022-09-05T00:18:06.538Z,100.00
2022-09-05T00:24:25.192Z,100.00
2022-09-05T00:24:33.059Z,100.00
2022-09-05T00:26:22.905Z,100.00
2022-09-05T00:28:58.617Z,100.00
2022-09-05T00:31:55.890Z,100.00
2022-09-05T00:34:56.688Z,100.00
2022-09-05T00:37:33.516Z,100.00
2022-09-05T00:40:23.551Z,100.00
2022-09-05T00:42:55.629Z,100.00
2022-09-05T00:45:32.015Z,100.00
2022-09-05T00:48:09.353Z,100.00
2022-09-05T00:50:59.803Z,100.00
2022-09-05T00:53:37.912Z,100.00
2022-09-05T00:56:20.939Z,100.00
2022-09-05T00:59:28.538Z,100.00
2022-09-05T01:02:05.700Z,100.00
2022-09-05T01:04:44.227Z,100.00
2022-09-05T01:07:28.252Z,100.00
2022-09-05T01:10:12.495Z,100.00
2022-09-05T01:12:59.184Z,100.00
2022-09-05T01:15:37.588Z,100.00
2022-09-05T01:18:20.944Z,100.00
2022-09-05T01:21:12.396Z,100.00
2022-09-05T01:23:55.421Z,100.00
2022-09-05T01:26:45.783Z,100.00
2022-09-05T01:29:20.852Z,100.00
2022-09-05T01:32:15.381Z,100.00
2022-09-05T01:34:57.695Z,100.00
2022-09-05T01:37:34.289Z,100.00
2022-09-05T01:40:16.691Z,100.00
2022-09-05T01:43:02.496Z,100.00
2022-09-05T01:45:46.555Z,100.00
2022-09-05T01:48:28.353Z,100.00
2022-09-05T01:51:28.259Z,100.00
2022-09-05T01:54:10.133Z,100.00
2022-09-05T01:57:03.458Z,100.00
2022-09-05T01:59:45.862Z,100.00
2022-09-05T02:02:35.432Z,100.00
2022-09-05T02:05:48.434Z,100.00
2022-09-05T02:08:35.780Z,100.00
2022-09-05T02:11:07.100Z,100.00
2022-09-05T02:13:53.473Z,100.00
2022-09-05T02:16:29.624Z,100.00
2022-09-05T02:19:08.503Z,100.00
2022-09-05T02:21:56.289Z,100.00
2022-09-05T02:24:29.365Z,100.00
2022-09-05T02:27:53.477Z,100.00
2022-09-05T02:30:13.690Z,100.00
2022-09-05T02:32:52.679Z,100.00
2022-09-05T02:35:28.246Z,100.00
2022-09-05T02:38:03.333Z,100.00
2022-09-05T02:45:13.701Z,100.00
2022-09-05T02:45:20.601Z,100.00
2022-09-05T02:46:51.407Z,100.00
2022-09-05T02:51:02.561Z,100.00
2022-09-05T02:57:26.825Z,100.00
2022-09-05T02:57:47.028Z,100.00
2022-09-05T02:58:26.130Z,100.00
2022-09-05T03:01:02.765Z,100.00
2022-09-05T03:03:39.290Z,100.00
2022-09-05T03:06:34.274Z,100.00
2022-09-05T03:09:22.546Z,100.00
2022-09-05T03:12:41.018Z,100.00
2022-09-05T03:15:50.402Z,100.00
2022-09-05T03:18:47.889Z,100.00
2022-09-05T03:21:47.962Z,100.00
2022-09-05T03:24:55.906Z,100.00
2022-09-05T03:28:03.368Z,100.00
2022-09-05T03:30:52.806Z,100.00
2022-09-05T03:33:54.521Z,100.00
2022-09-05T03:36:58.807Z,100.00
2022-09-05T03:40:00.678Z,100.00
2022-09-05T03:42:58.545Z,100.00
2022-09-05T03:45:46.571Z,100.00
2022-09-05T03:48:50.945Z,100.00
2022-09-05T03:57:14.380Z,100.00
2022-09-05T03:57:26.942Z,100.00
2022-09-05T03:58:16.762Z,100.00
2022-09-05T04:01:20.270Z,100.00
2022-09-05T04:08:13.653Z,100.00
2022-09-05T04:08:24.411Z,100.00
2022-09-05T04:09:51.152Z,100.00
2022-09-05T04:12:23.069Z,100.00
2022-09-05T04:14:58.037Z,100.00
2022-09-05T04:17:33.620Z,100.00
2022-09-05T04:20:11.028Z,100.00
2022-09-05T04:23:03.168Z,100.00
2022-09-05T04:25:43.290Z,100.00
2022-09-05T04:28:23.267Z,100.00
2022-09-05T04:30:59.723Z,100.00
2022-09-05T04:33:36.422Z,100.00
2022-09-05T04:36:19.888Z,100.00
2022-09-05T04:39:07.988Z,100.00
2022-09-05T04:41:41.571Z,100.00
2022-09-05T04:44:16.200Z,100.00
2022-09-05T04:46:50.104Z,100.00
2022-09-05T04:49:25.680Z,100.00
2022-09-05T04:52:23.605Z,100.00
2022-09-05T04:55:08.285Z,100.00
2022-09-05T04:57:44.508Z,100.00
2022-09-05T05:05:22.308Z,100.00
2022-09-05T05:06:04.736Z,100.00
2022-09-05T05:06:36.747Z,100.00
2022-09-05T05:09:01.726Z,100.00
2022-09-05T05:17:53.718Z,100.00
2022-09-05T05:18:09.601Z,100.00
2022-09-05T05:18:10.901Z,100.00
2022-09-05T05:20:41.281Z,100.00
2022-09-05T05:23:14.639Z,100.00
2022-09-05T05:25:49.091Z,100.00
2022-09-05T05:28:25.297Z,100.00
2022-09-05T05:31:01.160Z,100.00
2022-09-05T05:33:33.973Z,100.00
2022-09-05T05:36:07.794Z,100.00
2022-09-05T05:38:44.843Z,100.00
2022-09-05T05:41:20.618Z,100.00
2022-09-05T05:43:50.862Z,100.00
2022-09-05T05:46:29.688Z,100.00
2022-09-05T05:49:15.272Z,100.00
2022-09-05T05:52:02.564Z,100.00
2022-09-05T05:54:38.458Z,100.00
2022-09-05T05:57:35.105Z,100.00
2022-09-05T06:00:14.936Z,100.00
2022-09-05T06:03:33.575Z,100.00
2022-09-05T06:06:38.207Z,100.00
2022-09-05T06:14:51.434Z,100.00
2022-09-05T06:15:02.641Z,100.00
2022-09-05T06:16:47.157Z,100.00
2022-09-05T06:20:53.045Z,100.00
2022-09-05T06:23:27.520Z,100.00
2022-09-05T06:26:33.825Z,100.00
2022-09-05T06:29:09.727Z,100.00
2022-09-05T06:32:01.514Z,100.00
2022-09-05T06:34:59.879Z,100.00
2022-09-05T06:37:39.928Z,100.00
2022-09-05T06:40:16.989Z,100.00
2022-09-05T06:43:04.511Z,100.00
2022-09-05T06:45:58.655Z,100.00
2022-09-05T06:48:44.586Z,100.00
2022-09-05T06:51:49.115Z,100.00
2022-09-05T06:55:18.557Z,100.00
2022-09-05T06:58:10.031Z,100.00
2022-09-05T07:00:47.520Z,100.00
2022-09-05T07:03:27.529Z,100.00
2022-09-05T07:06:01.956Z,100.00
2022-09-05T07:08:48.007Z,100.00
2022-09-05T07:11:21.003Z,100.00
2022-09-05T07:14:01.267Z,100.00
2022-09-05T07:16:47.389Z,100.00
2022-09-05T07:19:27.285Z,100.00
2022-09-05T07:22:25.793Z,100.00
2022-09-05T07:25:09.049Z,100.00
2022-09-05T07:27:42.000Z,100.00
2022-09-05T07:30:29.779Z,100.00
2022-09-05T07:33:06.815Z,100.00
2022-09-05T07:35:41.737Z,100.00
2022-09-05T07:38:16.309Z,100.00
2022-09-05T07:40:52.335Z,100.00
2022-09-05T07:43:25.376Z,100.00
2022-09-05T07:46:06.274Z,100.00
2022-09-05T07:48:38.418Z,100.00
2022-09-05T07:56:46.084Z,100.00
2022-09-05T07:57:10.066Z,100.00
2022-09-05T07:59:54.654Z,100.00
2022-09-05T08:02:22.679Z,100.00
2022-09-05T08:05:05.880Z,100.00
2022-09-05T08:07:46.632Z,100.00
2022-09-05T08:10:31.162Z,100.00
2022-09-05T08:13:23.724Z,100.00
2022-09-05T08:16:12.997Z,100.00
2022-09-05T08:18:47.701Z,100.00
2022-09-05T08:21:27.358Z,100.00
2022-09-05T08:24:13.561Z,100.00
2022-09-05T08:26:47.260Z,100.00
2022-09-05T08:29:28.288Z,100.00
2022-09-05T08:32:02.654Z,100.00
2022-09-05T08:34:45.619Z,100.00
2022-09-05T08:37:21.640Z,100.00
2022-09-05T08:40:02.442Z,100.00
2022-09-05T08:43:39.352Z,100.00
2022-09-05T08:46:41.808Z,100.00
2022-09-05T08:48:47.410Z,100.00
2022-09-05T08:51:28.436Z,100.00
2022-09-05T08:54:17.834Z,100.00
2022-09-05T08:56:55.291Z,100.00
2022-09-05T09:00:18.449Z,100.00
2022-09-05T09:03:07.036Z,100.00
2022-09-05T09:06:13.305Z,100.00
2022-09-05T09:08:57.119Z,100.00
2022-09-05T09:11:34.379Z,100.00
2022-09-05T09:14:35.818Z,100.00
2022-09-05T09:17:41.202Z,100.00
2022-09-05T09:20:16.846Z,100.00
2022-09-05T09:22:58.435Z,100.00
2022-09-05T09:25:33.978Z,100.00
2022-09-05T09:28:47.803Z,100.00
2022-09-05T09:31:16.867Z,100.00
2022-09-05T09:33:50.943Z,100.00
2022-09-05T09:36:41.895Z,100.00
2022-09-05T09:39:38.295Z,100.00
2022-09-05T09:42:33.598Z,100.00
2022-09-05T09:45:28.542Z,100.00
2022-09-05T09:48:41.933Z,100.00
2022-09-05T09:51:26.985Z,100.00
2022-09-05T09:54:19.574Z,100.00
2022-09-05T09:57:20.832Z,100.00
2022-09-05T10:00:07.593Z,100.00
2022-09-05T10:04:55.577Z,100.00
2022-09-05T10:10:46.529Z,100.00
2022-09-05T10:10:54.672Z,100.00
2022-09-05T10:13:08.089Z,100.00
2022-09-05T10:15:55.676Z,100.00
2022-09-05T10:18:42.393Z,100.00
2022-09-05T10:21:36.400Z,100.00
2022-09-05T10:24:43.464Z,100.00
2022-09-05T10:27:39.278Z,100.00
2022-09-05T10:30:16.342Z,100.00
2022-09-05T10:35:18.064Z,100.00
2022-09-05T10:36:25.584Z,100.00
2022-09-05T10:39:04.631Z,100.00
2022-09-05T10:41:44.269Z,100.00
2022-09-05T10:44:14.380Z,100.00
2022-09-05T10:46:57.067Z,100.00
2022-09-05T10:49:30.107Z,100.00
2022-09-05T10:52:18.796Z,100.00
2022-09-05T10:55:14.962Z,100.00
2022-09-05T10:58:01.073Z,100.00
2022-09-05T11:02:22.429Z,100.00
2022-09-05T11:03:46.594Z,100.00
2022-09-05T11:06:20.907Z,100.00
2022-09-05T11:09:06.132Z,100.00
2022-09-05T11:11:46.228Z,100.00
2022-09-05T11:14:36.726Z,100.00
2022-09-05T11:17:17.336Z,100.00
2022-09-05T11:19:51.384Z,100.00
2022-09-05T11:22:23.724Z,100.00
2022-09-05T11:24:57.004Z,100.00
2022-09-05T11:27:33.189Z,100.00
2022-09-05T11:30:08.552Z,100.00
2022-09-05T11:39:51.961Z,100.00
2022-09-05T11:39:52.867Z,100.00
2022-09-05T11:40:00.281Z,100.00
2022-09-05T11:42:36.685Z,100.00
2022-09-05T11:45:56.595Z,100.00
2022-09-05T11:48:53.596Z,100.00
2022-09-05T11:51:59.815Z,100.00
2022-09-05T11:55:21.229Z,100.00
2022-09-05T11:58:19.929Z,100.00
2022-09-05T12:01:42.193Z,100.00
2022-09-05T12:04:17.761Z,100.00
2022-09-05T12:07:26.994Z,100.00
2022-09-05T12:10:47.876Z,100.00
2022-09-05T12:13:21.712Z,100.00
2022-09-05T12:16:08.433Z,100.00
2022-09-05T12:18:48.048Z,100.00
2022-09-05T12:21:27.621Z,100.00
2022-09-05T12:25:17.316Z,100.00
2022-09-05T12:27:38.662Z,100.00
2022-09-05T12:29:59.807Z,96.44
2022-09-05T12:35:48.727Z,99.14
2022-09-05T12:36:08.392Z,100.00
2022-09-05T12:40:57.365Z,95.91
2022-09-05T12:41:46.169Z,100.00
2022-09-05T12:44:47.248Z,100.00
2022-09-05T12:47:22.888Z,98.15
2022-09-05T12:50:03.572Z,97.76
2022-09-05T12:52:46.497Z,97.78
2022-09-05T12:55:26.027Z,97.46
2022-09-05T13:02:58.702Z,92.58
2022-09-05T13:03:03.809Z,97.36
2022-09-05T13:04:15.923Z,97.69
2022-09-05T13:06:40.942Z,100.00
2022-09-05T13:09:21.229Z,100.00
2022-09-05T13:14:46.714Z,100.00
2022-09-05T13:15:18.671Z,90.93
2022-09-05T13:17:54.625Z,93.88
2022-09-05T13:20:34.967Z,96.02
2022-09-05T13:23:11.380Z,89.46
2022-09-05T13:25:43.243Z,79.84
2022-09-05T13:28:16.288Z,82.00
2022-09-05T13:37:53.621Z,80.92
2022-09-05T13:38:11.133Z,81.21
2022-09-05T13:38:13.582Z,79.68
2022-09-05T13:39:37.444Z,73.81
2022-09-05T13:42:07.245Z,69.81
2022-09-05T13:44:46.447Z,73.91
2022-09-05T13:47:29.784Z,70.06
2022-09-05T13:50:22.318Z,81.71
2022-09-05T13:52:58.090Z,70.23
2022-09-05T13:55:44.900Z,73.01
2022-09-05T13:58:21.506Z,78.70
2022-09-05T14:01:17.579Z,78.22
2022-09-05T14:07:46.001Z,65.95
2022-09-05T14:10:48.411Z,69.53
2022-09-05T14:13:20.827Z,69.68
2022-09-05T14:15:55.323Z,73.60
2022-09-05T14:18:26.019Z,65.04
2022-09-05T14:21:17.026Z,73.54
2022-09-05T14:23:55.974Z,65.90
2022-09-05T14:26:30.129Z,63.50
2022-09-05T14:29:05.077Z,64.47
2022-09-05T14:37:43.108Z,59.55
2022-09-05T14:37:55.079Z,62.77
2022-09-05T14:38:09.336Z,61.71
2022-09-05T14:41:35.353Z,61.01
2022-09-05T14:44:32.051Z,57.86
2022-09-05T14:47:32.490Z,54.85
2022-09-05T14:50:35.066Z,58.87
2022-09-05T14:56:38.324Z,66.39
2022-09-05T15:02:44.576Z,70.17
2022-09-05T15:02:48.152Z,75.62
2022-09-05T15:04:44.583Z,73.22
2022-09-05T15:07:17.332Z,84.39
2022-09-05T15:12:14.647Z,78.40
2022-09-05T15:12:45.994Z,82.01
2022-09-05T15:15:25.692Z,71.87
2022-09-05T15:17:57.909Z,80.93
2022-09-05T15:20:32.221Z,76.30
2022-09-05T15:23:03.665Z,80.73
2022-09-05T15:25:47.407Z,76.41
2022-09-05T15:28:21.596Z,67.33
2022-09-05T15:30:57.987Z,72.65
2022-09-05T15:33:30.122Z,70.74
2022-09-05T15:35:59.196Z,61.89
2022-09-05T15:38:31.257Z,63.09
2022-09-05T15:41:08.064Z,66.18
2022-09-05T15:43:40.123Z,72.47
2022-09-05T15:46:08.617Z,71.41
2022-09-05T15:48:40.857Z,67.94
2022-09-05T15:51:18.864Z,71.02
2022-09-05T15:53:52.522Z,72.46
2022-09-05T15:56:24.482Z,67.09
2022-09-05T15:58:57.502Z,67.52
2022-09-05T16:01:46.411Z,65.82
2022-09-05T16:09:16.606Z,69.00
2022-09-05T16:10:37.467Z,78.39
2022-09-05T16:10:41.439Z,73.76
2022-09-05T16:12:51.830Z,82.78
2022-09-05T16:17:52.505Z,83.64
2022-09-05T16:23:17.780Z,85.07
2022-09-05T16:23:26.557Z,83.95
2022-09-05T16:24:05.201Z,83.58
2022-09-05T16:26:37.011Z,83.80
2022-09-05T16:29:10.931Z,87.37
2022-09-05T16:31:46.286Z,88.20
2022-09-05T16:34:26.515Z,90.96
2022-09-05T16:37:09.035Z,93.91
2022-09-05T16:39:40.359Z,92.75
2022-09-05T16:42:17.408Z,94.52
2022-09-05T16:44:52.390Z,97.33
2022-09-05T16:47:25.810Z,96.98
2022-09-05T16:50:02.808Z,96.97
2022-09-05T16:52:40.080Z,97.84
2022-09-05T16:55:28.950Z,98.71
2022-09-05T16:58:03.450Z,100.00
2022-09-05T17:01:05.732Z,100.00
2022-09-05T17:03:43.922Z,100.00
2022-09-05T17:06:25.567Z,100.00
2022-09-05T17:09:12.134Z,100.00
2022-09-05T17:11:59.831Z,100.00
2022-09-05T17:14:34.526Z,100.00
2022-09-05T17:17:20.248Z,100.00
2022-09-05T17:20:05.906Z,100.00
2022-09-05T17:26:35.216Z,100.00
2022-09-05T17:29:18.037Z,100.00
2022-09-05T17:29:24.826Z,100.00
2022-09-05T17:31:57.591Z,100.00
2022-09-05T17:35:18.001Z,100.00
2022-09-05T17:38:29.458Z,100.00
2022-09-05T17:41:30.876Z,100.00
2022-09-05T17:44:07.359Z,100.00
2022-09-05T17:46:44.217Z,100.00
2022-09-05T17:49:19.405Z,100.00
2022-09-05T17:52:22.971Z,100.00
2022-09-05T17:54:53.864Z,100.00
2022-09-05T17:57:45.162Z,100.00
2022-09-05T18:01:05.431Z,100.00
2022-09-05T18:04:15.957Z,100.00
2022-09-05T18:06:59.220Z,100.00
2022-09-05T18:10:03.496Z,100.00
2022-09-05T18:16:11.702Z,100.00
2022-09-05T18:19:32.122Z,100.00
2022-09-05T18:21:48.194Z,100.00
2022-09-05T18:27:43.950Z,100.00
2022-09-05T18:30:33.289Z,100.00
2022-09-05T18:33:55.394Z,100.00
2022-09-05T18:36:35.845Z,100.00
2022-09-05T18:39:49.376Z,100.00
2022-09-05T18:42:33.583Z,100.00
2022-09-05T18:45:15.441Z,100.00
2022-09-05T18:47:52.686Z,100.00
2022-09-05T18:50:32.408Z,100.00
2022-09-05T18:53:09.636Z,100.00
2022-09-05T18:56:12.582Z,100.00
2022-09-05T18:58:53.994Z,100.00
2022-09-05T19:01:33.351Z,100.00
2022-09-05T19:04:06.840Z,100.00
2022-09-05T19:06:45.162Z,100.00
2022-09-05T19:09:27.229Z,100.00
2022-09-05T19:12:33.148Z,100.00
2022-09-05T19:14:54.431Z,100.00
2022-09-05T19:17:32.482Z,100.00
2022-09-05T19:20:31.551Z,100.00
2022-09-05T19:23:11.300Z,100.00
2022-09-05T19:25:42.897Z,100.00
2022-09-05T19:32:10.690Z,100.00
2022-09-05T19:36:54.501Z,100.00
2022-09-05T19:36:54.643Z,100.00
2022-09-05T19:37:26.269Z,100.00
2022-09-05T19:43:24.115Z,100.00
2022-09-05T19:47:35.919Z,100.00
2022-09-05T19:47:40.606Z,100.00
2022-09-05T19:48:26.040Z,100.00
2022-09-05T19:50:56.392Z,100.00
2022-09-05T19:53:26.279Z,100.00
2022-09-05T19:55:55.900Z,100.00
2022-09-05T19:58:25.467Z,100.00
2022-09-05T20:01:06.026Z,100.00
2022-09-05T20:03:39.415Z,100.00
2022-09-05T20:06:28.718Z,100.00
2022-09-05T20:09:15.361Z,100.00
2022-09-05T20:11:51.251Z,100.00
2022-09-05T20:14:22.360Z,100.00
2022-09-05T20:16:51.401Z,100.00
2022-09-05T20:19:32.440Z,100.00
2022-09-05T20:22:10.202Z,100.00
2022-09-05T20:24:53.844Z,100.00
2022-09-05T20:27:27.046Z,100.00
2022-09-05T20:29:58.956Z,100.00
2022-09-05T20:32:38.867Z,100.00
2022-09-05T20:38:42.119Z,100.00
2022-09-05T20:43:19.664Z,100.00
2022-09-05T20:43:27.684Z,100.00
2022-09-05T20:43:57.760Z,100.00
2022-09-05T20:48:55.805Z,100.00
2022-09-05T20:54:06.059Z,100.00
2022-09-05T20:54:18.043Z,100.00
2022-09-05T20:55:39.196Z,100.00
2022-09-05T20:57:51.488Z,100.00
2022-09-05T21:00:22.513Z,100.00
2022-09-05T21:02:54.729Z,100.00
2022-09-05T21:05:30.135Z,100.00
2022-09-05T21:08:26.057Z,100.00
2022-09-05T21:10:56.520Z,100.00
2022-09-05T21:13:29.733Z,100.00
2022-09-05T21:15:58.396Z,100.00
2022-09-05T21:18:33.880Z,100.00
2022-09-05T21:21:28.960Z,100.00
2022-09-05T21:24:16.502Z,100.00
2022-09-05T21:26:48.140Z,100.00
2022-09-05T21:29:27.374Z,100.00
2022-09-05T21:32:03.862Z,100.00
2022-09-05T21:34:44.698Z,100.00
2022-09-05T21:37:14.289Z,100.00
2022-09-05T21:39:46.757Z,100.00
2022-09-05T21:43:46.562Z,100.00
2022-09-05T21:47:43.997Z,100.00
2022-09-05T21:48:06.807Z,100.00
2022-09-05T21:50:40.878Z,100.00
2022-09-05T21:55:14.828Z,100.00
2022-09-05T21:59:24.589Z,100.00
2022-09-05T21:59:30.400Z,100.00
2022-09-05T22:01:55.339Z,100.00
2022-09-05T22:04:23.319Z,100.00
2022-09-05T22:06:53.301Z,100.00
2022-09-05T22:09:22.841Z,100.00
2022-09-05T22:11:51.205Z,100.00
2022-09-05T22:14:19.972Z,100.00
2022-09-05T22:16:50.346Z,100.00
2022-09-05T22:19:26.194Z,100.00
2022-09-05T22:22:00.958Z,100.00
2022-09-05T22:24:32.830Z,100.00
2022-09-05T22:27:11.917Z,100.00
2022-09-05T22:29:41.287Z,100.00
2022-09-05T22:32:09.427Z,100.00
2022-09-05T22:34:38.675Z,100.00
2022-09-05T22:37:06.782Z,100.00
2022-09-05T22:39:36.897Z,100.00
2022-09-05T22:42:10.395Z,100.00
2022-09-05T22:44:40.053Z,100.00
2022-09-05T22:47:08.578Z,100.00
2022-09-05T22:49:37.304Z,100.00
2022-09-05T22:52:08.558Z,100.00
2022-09-05T22:54:37.109Z,100.00
2022-09-05T22:57:05.541Z,100.00
2022-09-05T22:59:33.461Z,100.00
2022-09-05T23:02:01.338Z,100.00
2022-09-05T23:04:29.282Z,100.00
2022-09-05T23:06:57.329Z,100.00
2022-09-05T23:09:27.973Z,100.00
2022-09-05T23:11:55.897Z,100.00
2022-09-05T23:14:23.712Z,100.00
2022-09-05T23:16:51.901Z,100.00
2022-09-05T23:19:19.817Z,100.00
2022-09-05T23:21:47.647Z,100.00
2022-09-05T23:24:15.449Z,100.00
2022-09-05T23:26:44.662Z,100.00
2022-09-05T23:29:12.480Z,100.00
2022-09-05T23:31:40.344Z,100.00
2022-09-05T23:34:08.155Z,100.00
2022-09-05T23:36:36.140Z,100.00
2022-09-05T23:39:04.113Z,100.00
2022-09-05T23:41:31.946Z,100.00
2022-09-05T23:44:10.612Z,100.00
2022-09-05T23:46:40.464Z,100.00
2022-09-05T23:49:10.817Z,100.00
2022-09-05T23:51:38.686Z,100.00
2022-09-05T23:54:06.618Z,100.00
2022-09-05T23:56:34.468Z,100.00
2022-09-05T23:59:02.873Z,100.00
